createdAt,value
2018-08-13T00:00:15.282Z,0
2018-08-13T00:01:16.975Z,0
2018-08-13T00:02:18.679Z,0
2018-08-13T00:03:20.388Z,0
2018-08-13T00:04:22.110Z,0
2018-08-13T00:05:23.831Z,0
2018-08-13T00:06:25.529Z,0
2018-08-13T00:07:27.235Z,0
2018-08-13T00:08:28.920Z,0
2018-08-13T00:09:30.626Z,0
2018-08-13T00:10:32.317Z,0
2018-08-13T00:11:34.037Z,0
2018-08-13T00:12:35.763Z,0
2018-08-13T00:13:37.484Z,0
2018-08-13T00:14:39.217Z,0
2018-08-13T00:15:40.923Z,0
2018-08-13T00:16:42.638Z,0
2018-08-13T00:17:44.390Z,0
2018-08-13T00:18:46.024Z,0
2018-08-13T00:19:47.764Z,0
2018-08-13T00:20:49.454Z,0
2018-08-13T00:21:51.140Z,0
2018-08-13T00:22:52.864Z,0
2018-08-13T00:23:54.548Z,0
2018-08-13T00:24:56.252Z,0
2018-08-13T00:25:57.938Z,0
2018-08-13T00:26:59.637Z,0
2018-08-13T00:28:01.365Z,0
2018-08-13T00:29:03.093Z,0
2018-08-13T00:30:04.788Z,0
2018-08-13T00:31:06.505Z,0
2018-08-13T00:32:08.216Z,0
2018-08-13T00:33:09.938Z,0
2018-08-13T00:34:11.640Z,0
2018-08-13T00:35:13.343Z,0
2018-08-13T00:36:15.040Z,0
2018-08-13T00:37:16.753Z,0
2018-08-13T00:38:18.440Z,0
2018-08-13T00:39:20.136Z,0
2018-08-13T00:40:21.873Z,0
2018-08-13T00:41:23.599Z,0
2018-08-13T00:42:25.312Z,0
2018-08-13T00:43:27.043Z,0
2018-08-13T00:44:28.730Z,0
2018-08-13T00:45:30.445Z,0
2018-08-13T00:46:32.160Z,0
2018-08-13T00:47:33.842Z,0
2018-08-13T00:48:35.530Z,0
2018-08-13T00:49:37.242Z,0
2018-08-13T00:50:38.931Z,0
2018-08-13T00:51:40.647Z,0
2018-08-13T00:52:42.361Z,0
2018-08-13T00:53:44.078Z,0
2018-08-13T00:54:45.792Z,0
2018-08-13T00:55:47.505Z,0
2018-08-13T00:56:49.212Z,0
2018-08-13T00:57:50.898Z,0
2018-08-13T00:58:52.601Z,0
2018-08-13T00:59:54.332Z,0
2018-08-13T01:00:56.073Z,0
2018-08-13T01:01:57.764Z,0
2018-08-13T01:02:59.471Z,0
2018-08-13T01:04:01.198Z,0
2018-08-13T01:05:02.940Z,0
2018-08-13T01:06:04.640Z,0
2018-08-13T01:07:06.336Z,0
2018-08-13T01:08:08.065Z,0
2018-08-13T01:09:09.789Z,0
2018-08-13T01:10:11.477Z,0
2018-08-13T01:11:13.185Z,0
2018-08-13T01:12:14.878Z,0
2018-08-13T01:13:16.575Z,0
2018-08-13T01:14:18.252Z,0
2018-08-13T01:15:19.952Z,0
2018-08-13T01:16:21.653Z,0
2018-08-13T01:17:23.361Z,0
2018-08-13T01:18:25.093Z,0
2018-08-13T01:19:26.795Z,0
2018-08-13T01:20:28.488Z,0
2018-08-13T01:21:30.178Z,0
2018-08-13T01:22:31.871Z,0
2018-08-13T01:23:33.579Z,0
2018-08-13T01:24:35.263Z,0
2018-08-13T01:25:36.970Z,0
2018-08-13T01:26:38.664Z,0
2018-08-13T01:27:40.361Z,0
2018-08-13T01:28:42.090Z,0
2018-08-13T01:29:43.809Z,0
2018-08-13T01:30:45.506Z,0
2018-08-13T01:31:47.222Z,0
2018-08-13T01:32:48.961Z,0
2018-08-13T01:33:50.654Z,0
2018-08-13T01:34:52.336Z,0
2018-08-13T01:35:54.073Z,0
2018-08-13T01:36:55.805Z,0
2018-08-13T01:37:57.493Z,0
2018-08-13T01:38:59.195Z,0
2018-08-13T01:40:00.883Z,0
2018-08-13T01:41:02.587Z,0
2018-08-13T01:42:04.299Z,0
2018-08-13T01:43:05.979Z,0
2018-08-13T01:44:07.673Z,0
2018-08-13T01:45:09.412Z,0
2018-08-13T01:46:11.115Z,0
2018-08-13T01:47:12.812Z,0
2018-08-13T01:48:14.527Z,0
2018-08-13T01:49:16.210Z,0
2018-08-13T01:50:17.927Z,0
2018-08-13T01:51:19.659Z,0
2018-08-13T01:52:21.376Z,0
2018-08-13T01:53:23.082Z,0
2018-08-13T01:54:24.798Z,0
2018-08-13T01:55:26.488Z,0
2018-08-13T01:56:28.184Z,0
2018-08-13T01:57:29.869Z,0
2018-08-13T01:58:31.588Z,0
2018-08-13T01:59:33.299Z,0
2018-08-13T02:00:35.056Z,0
2018-08-13T02:01:36.793Z,0
2018-08-13T02:02:38.507Z,0
2018-08-13T02:03:40.239Z,0
2018-08-13T02:04:41.929Z,0
2018-08-13T02:05:43.616Z,0
2018-08-13T02:06:45.297Z,0
2018-08-13T02:07:47.009Z,0
2018-08-13T02:08:48.749Z,0
2018-08-13T02:09:50.505Z,0
2018-08-13T02:10:52.199Z,0
2018-08-13T02:11:53.923Z,0
2018-08-13T02:12:55.649Z,0
2018-08-13T02:13:57.379Z,0
2018-08-13T02:14:59.068Z,0
2018-08-13T02:16:00.745Z,0
2018-08-13T02:17:02.464Z,0
2018-08-13T02:18:04.151Z,0
2018-08-13T02:19:05.846Z,0
2018-08-13T02:20:07.556Z,0
2018-08-13T02:21:09.231Z,0
2018-08-13T02:22:10.951Z,0
2018-08-13T02:23:12.674Z,0
2018-08-13T02:24:14.392Z,0
2018-08-13T02:25:16.113Z,0
2018-08-13T02:26:17.824Z,0
2018-08-13T02:27:19.538Z,0
2018-08-13T02:28:21.251Z,0
2018-08-13T02:29:22.946Z,0
2018-08-13T02:30:24.646Z,0
2018-08-13T02:31:26.349Z,0
2018-08-13T02:32:28.040Z,0
2018-08-13T02:33:29.773Z,0
2018-08-13T02:34:31.472Z,0
2018-08-13T02:35:33.181Z,0
2018-08-13T02:36:34.884Z,0
2018-08-13T02:37:36.601Z,0
2018-08-13T02:38:38.341Z,0
2018-08-13T02:39:40.060Z,0
2018-08-13T02:40:41.757Z,0
2018-08-13T02:41:43.497Z,0
2018-08-13T02:42:45.190Z,0
2018-08-13T02:43:46.877Z,0
2018-08-13T02:44:48.594Z,0
2018-08-13T02:45:50.281Z,0
2018-08-13T02:46:51.978Z,0
2018-08-13T02:47:53.675Z,0
2018-08-13T02:48:55.410Z,0
2018-08-13T02:49:57.111Z,0
2018-08-13T02:50:58.840Z,0
2018-08-13T02:52:00.531Z,0
2018-08-13T02:53:02.230Z,0
2018-08-13T02:54:03.928Z,0
2018-08-13T02:55:05.667Z,0
2018-08-13T02:56:07.399Z,0
2018-08-13T02:57:09.106Z,0
2018-08-13T02:58:10.877Z,0
2018-08-13T02:59:12.511Z,0
2018-08-13T03:00:14.204Z,0
2018-08-13T03:01:15.963Z,0
2018-08-13T03:02:17.699Z,0
2018-08-13T03:03:19.410Z,0
2018-08-13T03:04:21.122Z,0
2018-08-13T03:05:22.855Z,0
2018-08-13T03:06:24.583Z,0
2018-08-13T03:07:26.265Z,0
2018-08-13T03:08:27.990Z,0
2018-08-13T03:09:29.732Z,0
2018-08-13T03:10:31.471Z,0
2018-08-13T03:11:33.186Z,0
2018-08-13T03:12:34.912Z,0
2018-08-13T03:13:36.624Z,0
2018-08-13T03:14:38.305Z,0
2018-08-13T03:15:39.988Z,0
2018-08-13T03:16:41.705Z,0
2018-08-13T03:17:43.446Z,0
2018-08-13T03:18:45.134Z,0
2018-08-13T03:19:46.847Z,0
2018-08-13T03:20:48.562Z,0
2018-08-13T03:21:50.288Z,0
2018-08-13T03:22:51.995Z,0
2018-08-13T03:23:53.690Z,0
2018-08-13T03:24:55.402Z,0
2018-08-13T03:25:57.113Z,0
2018-08-13T03:26:58.811Z,0
2018-08-13T03:28:00.499Z,0
2018-08-13T03:29:02.247Z,0
2018-08-13T03:30:03.995Z,0
2018-08-13T03:31:05.737Z,0
2018-08-13T03:32:07.430Z,0
2018-08-13T03:33:09.129Z,0
2018-08-13T03:34:10.821Z,0
2018-08-13T03:35:12.543Z,0
2018-08-13T03:36:14.264Z,0
2018-08-13T03:37:15.985Z,0
2018-08-13T03:38:17.709Z,0
2018-08-13T03:39:19.400Z,0
2018-08-13T03:40:21.120Z,0
2018-08-13T03:41:22.834Z,0
2018-08-13T03:42:24.561Z,0
2018-08-13T03:43:26.266Z,0
2018-08-13T03:44:27.993Z,0
2018-08-13T03:45:29.676Z,0
2018-08-13T03:46:31.370Z,0
2018-08-13T03:47:33.101Z,0
2018-08-13T03:48:34.838Z,0
2018-08-13T03:49:36.574Z,0
2018-08-13T03:50:38.255Z,0
2018-08-13T03:51:39.948Z,0
2018-08-13T03:52:41.671Z,0
2018-08-13T03:53:43.392Z,0
2018-08-13T03:54:45.034Z,0
2018-08-13T03:55:46.717Z,0
2018-08-13T03:56:48.423Z,0
2018-08-13T03:57:50.110Z,0
2018-08-13T03:58:51.806Z,0
2018-08-13T03:59:53.498Z,0
2018-08-13T04:00:55.215Z,0
2018-08-13T04:01:56.926Z,0
2018-08-13T04:02:58.660Z,0
2018-08-13T04:04:00.348Z,0
2018-08-13T04:05:02.071Z,0
2018-08-13T04:06:03.764Z,0
2018-08-13T04:07:05.491Z,0
2018-08-13T04:08:07.186Z,0
2018-08-13T04:09:08.910Z,0
2018-08-13T04:10:10.602Z,0
2018-08-13T04:11:12.313Z,0
2018-08-13T04:12:14.041Z,0
2018-08-13T04:13:15.712Z,0
2018-08-13T04:14:17.434Z,0
2018-08-13T04:15:19.142Z,0
2018-08-13T04:16:20.856Z,0
2018-08-13T04:17:22.596Z,0
2018-08-13T04:18:24.310Z,0
2018-08-13T04:19:26.041Z,0
2018-08-13T04:20:27.745Z,0
2018-08-13T04:21:29.447Z,0
2018-08-13T04:22:31.162Z,0
2018-08-13T04:23:32.862Z,0
2018-08-13T04:24:34.555Z,0
2018-08-13T04:25:36.248Z,0
2018-08-13T04:26:37.957Z,0
2018-08-13T04:27:39.689Z,0
2018-08-13T04:28:41.387Z,0
2018-08-13T04:29:43.065Z,0
2018-08-13T04:30:44.770Z,0
2018-08-13T04:31:46.460Z,0
2018-08-13T04:32:48.302Z,0
2018-08-13T04:33:49.931Z,0
2018-08-13T04:34:51.609Z,0
2018-08-13T04:35:53.332Z,0
2018-08-13T04:36:55.012Z,0
2018-08-13T04:37:56.701Z,0
2018-08-13T04:38:58.390Z,0
2018-08-13T04:40:00.148Z,0
2018-08-13T04:41:01.889Z,0
2018-08-13T04:42:03.607Z,0
2018-08-13T04:43:05.309Z,0
2018-08-13T04:44:07.011Z,0
2018-08-13T04:45:08.738Z,0
2018-08-13T04:46:10.457Z,0
2018-08-13T04:47:12.149Z,0
2018-08-13T04:48:13.838Z,0
2018-08-13T04:49:15.525Z,0
2018-08-13T04:50:17.276Z,0
2018-08-13T04:51:18.944Z,0
2018-08-13T04:52:20.626Z,0
2018-08-13T04:53:22.348Z,0
2018-08-13T04:54:24.031Z,0
2018-08-13T04:55:25.709Z,0
2018-08-13T04:56:27.420Z,0
2018-08-13T04:57:29.140Z,0
2018-08-13T04:58:30.856Z,0
2018-08-13T04:59:32.575Z,0
2018-08-13T05:00:34.305Z,0
2018-08-13T05:01:35.987Z,0
2018-08-13T05:02:37.676Z,0
2018-08-13T05:03:39.374Z,0
2018-08-13T05:04:41.090Z,0
2018-08-13T05:05:42.805Z,0
2018-08-13T05:06:44.533Z,0
2018-08-13T05:07:46.216Z,0
2018-08-13T05:08:47.903Z,0
2018-08-13T05:09:49.584Z,0
2018-08-13T05:10:51.311Z,0
2018-08-13T05:11:53.028Z,0
2018-08-13T05:12:54.753Z,0
2018-08-13T05:13:56.478Z,0
2018-08-13T05:14:58.170Z,0
2018-08-13T05:15:59.887Z,0
2018-08-13T05:17:01.600Z,0
2018-08-13T05:18:03.302Z,4
2018-08-13T05:19:04.982Z,0
2018-08-13T05:20:06.696Z,4
2018-08-13T05:21:08.441Z,4
2018-08-13T05:22:10.088Z,4
2018-08-13T05:23:11.800Z,8
2018-08-13T05:24:13.521Z,8
2018-08-13T05:25:15.236Z,12
2018-08-13T05:26:16.959Z,12
2018-08-13T05:27:18.680Z,12
2018-08-13T05:28:20.397Z,16
2018-08-13T05:29:22.115Z,24
2018-08-13T05:30:23.898Z,28
2018-08-13T05:31:25.563Z,32
2018-08-13T05:32:27.279Z,40
2018-08-13T05:33:29.008Z,44
2018-08-13T05:34:30.728Z,56
2018-08-13T05:35:32.481Z,64
2018-08-13T05:36:34.193Z,76
2018-08-13T05:37:35.893Z,84
2018-08-13T05:38:37.613Z,104
2018-08-13T05:39:39.319Z,116
2018-08-13T05:40:41.042Z,132
2018-08-13T05:41:42.785Z,148
2018-08-13T05:42:44.522Z,168
2018-08-13T05:43:46.235Z,188
2018-08-13T05:44:47.929Z,208
2018-08-13T05:45:49.636Z,232
2018-08-13T05:46:51.366Z,248
2018-08-13T05:47:53.092Z,272
2018-08-13T05:48:54.790Z,292
2018-08-13T05:49:56.503Z,316
2018-08-13T05:50:58.270Z,340
2018-08-13T05:51:59.980Z,368
2018-08-13T05:53:01.893Z,392
2018-08-13T05:54:03.489Z,420
2018-08-13T05:55:05.214Z,448
2018-08-13T05:56:06.904Z,480
2018-08-13T05:57:08.587Z,508
2018-08-13T05:58:10.279Z,536
2018-08-13T05:59:11.998Z,568
2018-08-13T06:00:13.713Z,596
2018-08-13T06:01:15.430Z,628
2018-08-13T06:02:17.118Z,660
2018-08-13T06:03:18.839Z,692
2018-08-13T06:04:20.564Z,720
2018-08-13T06:05:22.301Z,752
2018-08-13T06:06:24.017Z,788
2018-08-13T06:07:25.735Z,824
2018-08-13T06:08:27.438Z,836
2018-08-13T06:09:29.150Z,852
2018-08-13T06:10:30.863Z,868
2018-08-13T06:11:32.575Z,892
2018-08-13T06:12:34.331Z,900
2018-08-13T06:13:36.038Z,904
2018-08-13T06:14:37.768Z,916
2018-08-13T06:15:39.497Z,916
2018-08-13T06:16:41.212Z,928
2018-08-13T06:17:42.950Z,956
2018-08-13T06:18:44.663Z,972
2018-08-13T06:19:46.397Z,1012
2018-08-13T06:20:48.124Z,1044
2018-08-13T06:21:49.822Z,1080
2018-08-13T06:22:51.539Z,1088
2018-08-13T06:23:53.272Z,1128
2018-08-13T06:24:54.996Z,1164
2018-08-13T06:25:56.731Z,1184
2018-08-13T06:26:58.466Z,1208
2018-08-13T06:28:00.168Z,1236
2018-08-13T06:29:01.886Z,1268
2018-08-13T06:30:03.613Z,1308
2018-08-13T06:31:05.285Z,1348
2018-08-13T06:32:06.974Z,1376
2018-08-13T06:33:08.776Z,1412
2018-08-13T06:34:10.429Z,1452
2018-08-13T06:35:12.153Z,1508
2018-08-13T06:36:13.894Z,1544
2018-08-13T06:37:15.680Z,1592
2018-08-13T06:38:17.379Z,1636
2018-08-13T06:39:19.093Z,1672
2018-08-13T06:40:20.821Z,1708
2018-08-13T06:41:22.537Z,1748
2018-08-13T06:42:24.277Z,1788
2018-08-13T06:43:25.971Z,1836
2018-08-13T06:44:27.659Z,1900
2018-08-13T06:45:29.381Z,1972
2018-08-13T06:46:31.068Z,2076
2018-08-13T06:47:32.765Z,2084
2018-08-13T06:48:34.502Z,2116
2018-08-13T06:49:36.227Z,2208
2018-08-13T06:50:37.943Z,2264
2018-08-13T06:51:39.631Z,2364
2018-08-13T06:52:41.337Z,2412
2018-08-13T06:53:43.045Z,2428
2018-08-13T06:54:44.746Z,2460
2018-08-13T06:55:46.474Z,2508
2018-08-13T06:56:48.193Z,2552
2018-08-13T06:57:49.910Z,2700
2018-08-13T06:58:51.626Z,2804
2018-08-13T06:59:53.311Z,2884
2018-08-13T07:00:55.062Z,2972
2018-08-13T07:01:56.726Z,3092
2018-08-13T07:02:58.467Z,3320
2018-08-13T07:04:00.215Z,3388
2018-08-13T07:05:01.960Z,3476
2018-08-13T07:06:03.670Z,3532
2018-08-13T07:07:05.403Z,3552
2018-08-13T07:08:07.129Z,3528
2018-08-13T07:09:08.830Z,3544
2018-08-13T07:10:10.565Z,3508
2018-08-13T07:11:12.290Z,3408
2018-08-13T07:12:13.993Z,3300
2018-08-13T07:13:15.735Z,3140
2018-08-13T07:14:17.433Z,3008
2018-08-13T07:15:19.131Z,2896
2018-08-13T07:16:20.829Z,2796
2018-08-13T07:17:22.565Z,2748
2018-08-13T07:18:24.266Z,2732
2018-08-13T07:19:25.982Z,2728
2018-08-13T07:20:27.675Z,2720
2018-08-13T07:21:29.375Z,2728
2018-08-13T07:22:31.197Z,2736
2018-08-13T07:23:32.789Z,2724
2018-08-13T07:24:34.511Z,2728
2018-08-13T07:25:36.209Z,2732
2018-08-13T07:26:37.903Z,2740
2018-08-13T07:27:39.628Z,2756
2018-08-13T07:28:41.335Z,2768
2018-08-13T07:29:43.051Z,2776
2018-08-13T07:30:44.779Z,2784
2018-08-13T07:31:46.499Z,2796
2018-08-13T07:32:48.193Z,2816
2018-08-13T07:33:50.027Z,2824
2018-08-13T07:34:51.575Z,2836
2018-08-13T07:35:53.299Z,2848
2018-08-13T07:36:55.007Z,2856
2018-08-13T07:37:56.717Z,2868
2018-08-13T07:38:58.496Z,2880
2018-08-13T07:40:00.203Z,2896
2018-08-13T07:41:01.917Z,2908
2018-08-13T07:42:03.650Z,2920
2018-08-13T07:43:05.354Z,2928
2018-08-13T07:44:07.040Z,2940
2018-08-13T07:45:08.768Z,2948
2018-08-13T07:46:10.495Z,2960
2018-08-13T07:47:12.222Z,2972
2018-08-13T07:48:13.942Z,2988
2018-08-13T07:49:15.655Z,2996
2018-08-13T07:50:17.362Z,3004
2018-08-13T07:51:19.085Z,3016
2018-08-13T07:52:20.823Z,3036
2018-08-13T07:53:22.509Z,3044
2018-08-13T07:54:24.203Z,3056
2018-08-13T07:55:25.905Z,3068
2018-08-13T07:56:27.601Z,3088
2018-08-13T07:57:29.317Z,3096
2018-08-13T07:58:31.045Z,3112
2018-08-13T07:59:32.736Z,3108
2018-08-13T08:00:34.438Z,3112
2018-08-13T08:01:36.160Z,3128
2018-08-13T08:02:37.854Z,3208
2018-08-13T08:03:39.611Z,3212
2018-08-13T08:04:41.339Z,2852
2018-08-13T08:05:43.057Z,2876
2018-08-13T08:06:45.378Z,2600
2018-08-13T08:07:47.094Z,3140
2018-08-13T08:08:48.797Z,3036
2018-08-13T08:09:50.491Z,2956
2018-08-13T08:10:52.177Z,3040
2018-08-13T08:11:53.900Z,3024
2018-08-13T08:12:55.776Z,3016
2018-08-13T08:13:57.492Z,3024
2018-08-13T08:14:59.222Z,3032
2018-08-13T08:16:01.495Z,3024
2018-08-13T08:17:03.134Z,3008
2018-08-13T08:18:04.859Z,3020
2018-08-13T08:19:06.755Z,3016
2018-08-13T08:20:08.504Z,3016
2018-08-13T08:21:10.360Z,3028
2018-08-13T08:22:12.110Z,3052
2018-08-13T08:23:15.076Z,3088
2018-08-13T08:24:17.483Z,3168
2018-08-13T08:25:19.617Z,3236
2018-08-13T08:26:21.799Z,3304
2018-08-13T08:27:24.039Z,3536
2018-08-13T08:28:26.358Z,3564
2018-08-13T08:29:28.612Z,3876
2018-08-13T08:30:30.812Z,4296
2018-08-13T08:31:32.569Z,5296
2018-08-13T08:32:34.671Z,5824
2018-08-13T08:33:36.966Z,6156
2018-08-13T08:34:39.140Z,6096
2018-08-13T08:35:41.330Z,6936
2018-08-13T08:36:43.544Z,7148
2018-08-13T08:37:45.735Z,7436
2018-08-13T08:38:47.869Z,7712
2018-08-13T08:39:50.156Z,7516
2018-08-13T08:40:52.338Z,7752
2018-08-13T08:41:54.376Z,7864
2018-08-13T08:42:57.372Z,7936
2018-08-13T08:43:59.619Z,7876
2018-08-13T08:45:01.811Z,8268
2018-08-13T08:46:04.018Z,8328
2018-08-13T08:47:05.766Z,8244
2018-08-13T08:48:07.761Z,8424
2018-08-13T08:49:09.767Z,8512
2018-08-13T08:50:11.739Z,8616
2018-08-13T08:51:13.874Z,8528
2018-08-13T08:52:15.931Z,8536
2018-08-13T08:53:17.801Z,8432
2018-08-13T08:54:19.546Z,8412
2018-08-13T08:55:21.293Z,8328
2018-08-13T08:56:23.054Z,8156
2018-08-13T08:57:24.843Z,8172
2018-08-13T08:58:26.554Z,8140
2018-08-13T08:59:28.277Z,8152
2018-08-13T09:00:30.040Z,8200
2018-08-13T09:01:31.779Z,8252
2018-08-13T09:02:33.513Z,8472
2018-08-13T09:03:35.254Z,8576
2018-08-13T09:04:36.990Z,8660
2018-08-13T09:05:38.715Z,8600
2018-08-13T09:06:40.489Z,8388
2018-08-13T09:07:42.217Z,8440
2018-08-13T09:08:43.943Z,8796
2018-08-13T09:09:45.704Z,9020
2018-08-13T09:10:47.438Z,9156
2018-08-13T09:11:49.170Z,9296
2018-08-13T09:12:51.038Z,9548
2018-08-13T09:13:52.762Z,9568
2018-08-13T09:14:54.513Z,9304
2018-08-13T09:15:56.275Z,9240
2018-08-13T09:16:58.077Z,9188
2018-08-13T09:17:59.781Z,8660
2018-08-13T09:19:01.590Z,8216
2018-08-13T09:20:03.305Z,8268
2018-08-13T09:21:05.067Z,8012
2018-08-13T09:22:06.820Z,7496
2018-08-13T09:23:08.598Z,7308
2018-08-13T09:24:10.320Z,7000
2018-08-13T09:25:12.080Z,6732
2018-08-13T09:26:13.791Z,6508
2018-08-13T09:27:15.557Z,6444
2018-08-13T09:28:17.293Z,6596
2018-08-13T09:29:19.007Z,6344
2018-08-13T09:30:20.754Z,6492
2018-08-13T09:31:22.525Z,6400
2018-08-13T09:32:24.263Z,6288
2018-08-13T09:33:25.997Z,6000
2018-08-13T09:34:27.750Z,5932
2018-08-13T09:35:29.535Z,5668
2018-08-13T09:36:31.332Z,5592
2018-08-13T09:37:32.987Z,5720
2018-08-13T09:38:34.680Z,6236
2018-08-13T09:39:36.386Z,6196
2018-08-13T09:40:38.122Z,6548
2018-08-13T09:41:39.824Z,6560
2018-08-13T09:42:41.516Z,6244
2018-08-13T09:43:43.212Z,5964
2018-08-13T09:44:44.947Z,5368
2018-08-13T09:45:46.652Z,5420
2018-08-13T09:46:48.385Z,5536
2018-08-13T09:47:50.107Z,5544
2018-08-13T09:48:51.834Z,5248
2018-08-13T09:49:53.535Z,5532
2018-08-13T09:50:55.241Z,5292
2018-08-13T09:51:56.944Z,4848
2018-08-13T09:52:58.640Z,4684
2018-08-13T09:54:00.373Z,4548
2018-08-13T09:55:02.105Z,4332
2018-08-13T09:56:03.801Z,4232
2018-08-13T09:57:05.491Z,4188
2018-08-13T09:58:07.189Z,4092
2018-08-13T09:59:08.920Z,4044
2018-08-13T10:00:10.694Z,4036
2018-08-13T10:01:12.379Z,4040
2018-08-13T10:02:14.112Z,4044
2018-08-13T10:03:15.826Z,4076
2018-08-13T10:04:17.558Z,4100
2018-08-13T10:05:19.300Z,4132
2018-08-13T10:06:21.019Z,4164
2018-08-13T10:07:22.737Z,4184
2018-08-13T10:08:24.442Z,4204
2018-08-13T10:09:26.199Z,4212
2018-08-13T10:10:27.887Z,4244
2018-08-13T10:11:29.593Z,4236
2018-08-13T10:12:31.336Z,4248
2018-08-13T10:13:33.022Z,4252
2018-08-13T10:14:34.725Z,4236
2018-08-13T10:15:36.441Z,4212
2018-08-13T10:16:38.234Z,4224
2018-08-13T10:17:39.964Z,4252
2018-08-13T10:18:41.642Z,4280
2018-08-13T10:19:43.357Z,4388
2018-08-13T10:20:45.094Z,4204
2018-08-13T10:21:46.838Z,4664
2018-08-13T10:22:48.558Z,4912
2018-08-13T10:23:50.259Z,5064
2018-08-13T10:24:51.988Z,4832
2018-08-13T10:25:53.742Z,4948
2018-08-13T10:26:55.487Z,5172
2018-08-13T10:27:57.219Z,4516
2018-08-13T10:28:58.928Z,4816
2018-08-13T10:30:00.681Z,4680
2018-08-13T10:31:02.408Z,4644
2018-08-13T10:32:04.119Z,4744
2018-08-13T10:33:05.840Z,4916
2018-08-13T10:34:07.542Z,4792
2018-08-13T10:35:09.267Z,4588
2018-08-13T10:36:10.987Z,4556
2018-08-13T10:37:12.685Z,4508
2018-08-13T10:38:14.397Z,4556
2018-08-13T10:39:16.123Z,4556
2018-08-13T10:40:17.828Z,4624
2018-08-13T10:41:19.550Z,4744
2018-08-13T10:42:21.287Z,4704
2018-08-13T10:43:23.044Z,4700
2018-08-13T10:44:24.755Z,4624
2018-08-13T10:45:26.444Z,4684
2018-08-13T10:46:28.140Z,4680
2018-08-13T10:47:29.873Z,5016
2018-08-13T10:48:31.599Z,4848
2018-08-13T10:49:33.338Z,4880
2018-08-13T10:50:35.051Z,4788
2018-08-13T10:51:36.781Z,4828
2018-08-13T10:52:38.510Z,4620
2018-08-13T10:53:40.224Z,4496
2018-08-13T10:54:41.929Z,4468
2018-08-13T10:55:43.634Z,4500
2018-08-13T10:56:45.346Z,4548
2018-08-13T10:57:47.050Z,4572
2018-08-13T10:58:48.744Z,4608
2018-08-13T10:59:50.444Z,4840
2018-08-13T11:00:52.135Z,4884
2018-08-13T11:01:53.847Z,4748
2018-08-13T11:02:55.584Z,4636
2018-08-13T11:03:57.282Z,4512
2018-08-13T11:04:59.763Z,4480
2018-08-13T11:06:01.492Z,4500
2018-08-13T11:07:03.221Z,4524
2018-08-13T11:08:04.945Z,4556
2018-08-13T11:09:06.645Z,4620
2018-08-13T11:10:08.339Z,4692
2018-08-13T11:11:10.063Z,4724
2018-08-13T11:12:11.769Z,4736
2018-08-13T11:13:13.453Z,4876
2018-08-13T11:14:15.184Z,4968
2018-08-13T11:15:16.903Z,4944
2018-08-13T11:16:18.580Z,4920
2018-08-13T11:17:20.322Z,4940
2018-08-13T11:18:22.051Z,4900
2018-08-13T11:19:23.750Z,4900
2018-08-13T11:20:25.463Z,4820
2018-08-13T11:21:27.186Z,4976
2018-08-13T11:22:28.882Z,6052
2018-08-13T11:23:30.609Z,5072
2018-08-13T11:24:32.315Z,5492
2018-08-13T11:25:33.998Z,5216
2018-08-13T11:26:35.686Z,5068
2018-08-13T11:27:37.406Z,5144
2018-08-13T11:28:39.164Z,5112
2018-08-13T11:29:40.853Z,5136
2018-08-13T11:30:42.583Z,5156
2018-08-13T11:31:44.316Z,5128
2018-08-13T11:32:46.029Z,5168
2018-08-13T11:33:47.790Z,5236
2018-08-13T11:34:49.519Z,5336
2018-08-13T11:35:51.172Z,5660
2018-08-13T11:36:52.896Z,5680
2018-08-13T11:37:54.637Z,5736
2018-08-13T11:38:56.403Z,5900
2018-08-13T11:39:58.147Z,5888
2018-08-13T11:40:59.871Z,6012
2018-08-13T11:42:01.578Z,5796
2018-08-13T11:43:03.282Z,5472
2018-08-13T11:44:04.977Z,5320
2018-08-13T11:45:06.728Z,5284
2018-08-13T11:46:08.459Z,5264
2018-08-13T11:47:10.157Z,5300
2018-08-13T11:48:11.868Z,5300
2018-08-13T11:49:13.576Z,5328
2018-08-13T11:50:15.280Z,5296
2018-08-13T11:51:16.981Z,5316
2018-08-13T11:52:18.674Z,5372
2018-08-13T11:53:20.365Z,5448
2018-08-13T11:54:22.037Z,5544
2018-08-13T11:55:23.735Z,5712
2018-08-13T11:56:25.493Z,5896
2018-08-13T11:57:27.139Z,6128
2018-08-13T11:58:28.851Z,6472
2018-08-13T11:59:30.558Z,6536
2018-08-13T12:00:32.243Z,6720
2018-08-13T12:01:33.944Z,6956
2018-08-13T12:02:35.623Z,7660
2018-08-13T12:03:37.330Z,9824
2018-08-13T12:04:39.013Z,19328
2018-08-13T12:05:40.683Z,30816
2018-08-13T12:06:42.358Z,34976
2018-08-13T12:07:44.057Z,35872
2018-08-13T12:08:45.746Z,36800
2018-08-13T12:09:47.483Z,35712
2018-08-13T12:10:49.226Z,36768
2018-08-13T12:11:50.963Z,37696
2018-08-13T12:12:52.661Z,36448
2018-08-13T12:13:54.360Z,35360
2018-08-13T12:14:56.097Z,35776
2018-08-13T12:15:57.853Z,36288
2018-08-13T12:16:59.562Z,37184
2018-08-13T12:18:01.301Z,36928
2018-08-13T12:19:03.045Z,37664
2018-08-13T12:20:04.763Z,38176
2018-08-13T12:21:06.494Z,38240
2018-08-13T12:22:08.219Z,39840
2018-08-13T12:23:10.012Z,39840
2018-08-13T12:24:11.734Z,41120
2018-08-13T12:25:13.526Z,42176
2018-08-13T12:26:15.298Z,41280
2018-08-13T12:27:17.001Z,42976
2018-08-13T12:28:18.708Z,43328
2018-08-13T12:29:20.457Z,42176
2018-08-13T12:30:22.253Z,43552
2018-08-13T12:31:23.982Z,42848
2018-08-13T12:32:25.697Z,42080
2018-08-13T12:33:27.441Z,44288
2018-08-13T12:34:29.156Z,45824
2018-08-13T12:35:30.864Z,43680
2018-08-13T12:36:32.574Z,44032
2018-08-13T12:37:34.355Z,48384
2018-08-13T12:38:36.173Z,52448
2018-08-13T12:39:37.915Z,53440
2018-08-13T12:40:39.675Z,54976
2018-08-13T12:41:41.425Z,56704
2018-08-13T12:42:43.177Z,56192
2018-08-13T12:43:44.884Z,57408
2018-08-13T12:44:46.597Z,59424
2018-08-13T12:45:48.337Z,61632
2018-08-13T12:46:50.057Z,58816
2018-08-13T12:47:51.804Z,63840
2018-08-13T12:48:53.534Z,69664
2018-08-13T12:49:55.289Z,76608
2018-08-13T12:50:57.045Z,76960
2018-08-13T12:51:58.748Z,78976
2018-08-13T12:53:00.465Z,82368
2018-08-13T12:54:02.189Z,78560
2018-08-13T12:55:03.906Z,78560
2018-08-13T12:56:05.622Z,88800
2018-08-13T12:57:07.382Z,91520
2018-08-13T12:58:09.088Z,96736
2018-08-13T12:59:10.803Z,101632
2018-08-13T13:00:12.517Z,99968
2018-08-13T13:01:14.231Z,96224
2018-08-13T13:02:15.934Z,102752
2018-08-13T13:03:17.648Z,103776
2018-08-13T13:04:19.397Z,102464
2018-08-13T13:05:21.095Z,109056
2018-08-13T13:06:22.811Z,110624
2018-08-13T13:07:24.558Z,109984
2018-08-13T13:08:26.307Z,110816
2018-08-13T13:09:28.034Z,111616
2018-08-13T13:10:29.812Z,107968
2018-08-13T13:11:31.554Z,104704
2018-08-13T13:12:33.304Z,107680
2018-08-13T13:13:35.103Z,112768
2018-08-13T13:14:36.878Z,117184
2018-08-13T13:15:38.609Z,116160
2018-08-13T13:16:40.387Z,117952
2018-08-13T13:17:42.094Z,115072
2018-08-13T13:18:43.844Z,111456
2018-08-13T13:19:45.633Z,116480
2018-08-13T13:20:47.415Z,116160
2018-08-13T13:21:49.138Z,116544
2018-08-13T13:22:50.917Z,121216
2018-08-13T13:23:52.675Z,119808
2018-08-13T13:24:54.382Z,111296
2018-08-13T13:25:56.193Z,115456
2018-08-13T13:26:57.880Z,115488
2018-08-13T13:27:59.596Z,115392
2018-08-13T13:29:01.382Z,119520
2018-08-13T13:30:03.109Z,116256
2018-08-13T13:31:04.858Z,112672
2018-08-13T13:32:06.607Z,116448
2018-08-13T13:33:08.318Z,122848
2018-08-13T13:34:10.033Z,117248
2018-08-13T13:35:11.810Z,114080
2018-08-13T13:36:13.536Z,113248
2018-08-13T13:37:15.318Z,37792
2018-08-13T13:38:17.090Z,22272
2018-08-13T13:39:18.837Z,25472
2018-08-13T13:40:20.619Z,21888
2018-08-13T13:41:22.306Z,19296
2018-08-13T13:42:24.042Z,19872
2018-08-13T13:43:25.797Z,18720
2018-08-13T13:44:27.572Z,18048
2018-08-13T13:45:29.337Z,19168
2018-08-13T13:46:31.037Z,19104
2018-08-13T13:47:32.757Z,21856
2018-08-13T13:48:34.485Z,22496
2018-08-13T13:49:36.230Z,31168
2018-08-13T13:50:37.938Z,68096
2018-08-13T13:51:39.738Z,98016
2018-08-13T13:52:41.343Z,95008
2018-08-13T13:53:43.104Z,54272
2018-08-13T13:54:44.849Z,25664
2018-08-13T13:55:46.585Z,20544
2018-08-13T13:56:48.325Z,19936
2018-08-13T13:57:50.079Z,19072
2018-08-13T13:58:51.782Z,19136
2018-08-13T13:59:53.496Z,18304
2018-08-13T14:00:55.238Z,17984
2018-08-13T14:01:56.982Z,18080
2018-08-13T14:02:58.737Z,18080
2018-08-13T14:04:00.443Z,18752
2018-08-13T14:05:02.152Z,18336
2018-08-13T14:06:03.855Z,18304
2018-08-13T14:07:05.567Z,18688
2018-08-13T14:08:07.265Z,17120
2018-08-13T14:09:08.985Z,18720
2018-08-13T14:10:10.720Z,18560